Terminal Aerodrome Forecast
Issued by NWS Newport/Morehead City, NC

Home | Current Version | Previous Version | Text Only | Print | Product List | Glossary On
Versions: 1 2 3 4 5 6 7 8 9 10 11 12 13 14 15 16 17 18
360
FTUS42 KMHX 191322 AAA
TAFEWN
TAF AMD
KEWN 191322Z 1913/2012 26005KT P6SM SKC
      TEMPO 1913/1914 OVC010
     FM191800 25005KT P6SM VCTS BKN050CB
     FM200100 VRB04KT P6SM SCT100
     FM200700 VRB03KT 5SM BR SCT100=

USA.gov is the U.S. government's official web portal to all federal, state and local government web resources and services.